Memphis, MO

6:56 PM CST on February 26, 2015 (GMT -0600)
IADOT Cantril | Change Station
CLOSE
Current Station
Personal Weather Station
Location: Cantril, IA
Elevation: 692 ft
Nearby Weather Stations

Elev 692 ft 40.66 °N, 92.06 °W | Updated 33 minutes ago

Clear
Clear
6 °F
Feels Like -6 °F
N
7
Wind Variable Wind from NNW
Gusts 12.0 mph

Today
High -- | Low -- °F
--% Chance of Precip.
Yesterday
High -- | Low -- °F
Precip. -- in
6:47 AM 5:56 PM
Waxing Gibbous, 63% visible
Pressure 30.53 in
Visibility 10.0 miles
Clouds Clear
Windchill -6 °F
Dew Point -4 °F
Humidity 61%
Rainfall -999.00 in
Snow Depth Not available.
UV 0 out of 12
Pollen .50 out of 12
Air Quality Not available.
Flu Activity Not available.
METAR KIRK 262355Z AUTO 35008KT 10SM CLR M12/M19 A3045 RMK AO2 SLP337 T11221189 11083 21122 53021

More Conditions Fewer Conditions

Pressure 30.53 in
Visibility 10.0 miles
Clouds Clear
Windchill -6 °F
Dew Point -4 °F
Humidity 61%
Rainfall -999.00 in
Snow Depth Not available.
UV 0 out of 12
Pollen .50 out of 12
Air Quality Not available.
Flu Activity Not available.
METAR KIRK 262355Z AUTO 35008KT 10SM CLR M12/M19 A3045 RMK AO2 SLP337 T11221189 11083 21122 53021

More Conditions Fewer Conditions

10-Day Weather Forecast

Almanac

Astronomy

Feb. 26, 2015 Rise Set
Actual Time
Civil Twilight
Nautical Twilight
Astronomical Twilight
Moon
Length of Visible Light
Length of Day
Tomorrow will be .
, % of the Moon is Illuminated

Today's Extremes

State Highs State Lows

Community

WunderPhotos

Upload Photos

1,800,548 photos uploaded!

WunderBlogs® & News

Nearby

Air Quality

  Air Quality AQ Index Pollutant
Not available.

Snow Depth

Station Depth Elevation

Earthquake Activity

City Distance Mag. Time & Date
Minimum magnitude displayed is 2.5.

Coastal Water Temperatures

Place Temperature

Nearby Weather Stations